Aérodrome :
LOGIN :

S'inscrire | Disclaimer

   EN    FR    IT 

 










Légende :    VFR   VFR Marginal   IFR   IFR Intensif   IFR Très Intensif
Visi : 
Plafond : 
>= 8 km
>= 3000ft
5 à 8 km
1000 à 3000 ft
1500m à 5 km
500 à 1000 ft
800 à 1500m
200 à 500 ft
< 800m
< 200 ft
Symboles :   Orages  Brouillard  Fortes neiges  Fortes précipitations  Vent > 20 kt
SIGMETs :   Divers  Orages  Givrage  Turbulence  Onde Orograph.  Cendres Volcan.







- Altitude de l'aérodrome : 226 ft
- Code IATA : BEX


EGUB - RAF Benson

DERNIER METAR :
  • 231650Z 18007KT 9999 BKN019 15/15 Q1016 WHT BECMG BKN010 GRN

METARs EXPIRÉS :
  • 231550Z 18007KT 9999 BKN010 16/15 Q1016 GRN NOSIG
  • 231450Z 18006KT 9999 BKN010 16/14 Q1016 GRN NOSIG
  • 231350Z 18008KT 9999 BKN011 16/14 Q1016 GRN BECMG BKN015 WHT

TAF AMD TAF EGUB
Valide du 23 à 15h jusqu'au 24 à 00h UTC


231403Z 2315/2324 21007KT 9999 BKN012
PROB30
TEMPO 2315/2321 FEW012 BKN025
ATIS : +44 1491-837766 (x7524)
Pas de NOTAMs connus pour ce terrain.



MET'MAP, la Météo Aéronautique d'un coup d'oeil ! - Copyright ORBIFLY Décembre 2007 - Disclaimer

ORBIFLY MET'MAP TEAM :

Programmation & Développement : Alexandra Zaïnal
Conception & Développement : Baudouin d'Aumeries
Co-Programmation & Développement : Marc-Olivier Méhu
Soutien technique & logistique : Manuel Goepfert

Contact : metmap@orbifly.com




SOURCES & CREDITS :

   NOAA